createdAt,value
2019-02-24T00:06:04.878Z,12
2019-02-24T00:16:04.339Z,5.6
2019-02-24T00:26:04.984Z,6.4
2019-02-24T00:36:04.654Z,12.6
2019-02-24T00:46:02.410Z,12.5
2019-02-24T00:56:01.927Z,6.9
2019-02-24T01:06:01.355Z,5.8
2019-02-24T01:15:59.182Z,12.9
2019-02-24T01:25:58.526Z,8.9
2019-02-24T01:35:57.896Z,7.8
2019-02-24T01:45:57.224Z,5.6
2019-02-24T01:55:55.167Z,11.2
2019-02-24T02:05:54.563Z,4.9
2019-02-24T02:15:53.938Z,5.5
2019-02-24T02:25:53.325Z,4
2019-02-24T02:35:52.757Z,4.8
2019-02-24T02:45:52.233Z,5.4
2019-02-24T02:55:51.851Z,5.5
2019-02-24T03:05:55.576Z,4.4
2019-02-24T03:15:55.184Z,4.5
2019-02-24T03:25:54.617Z,3.9
2019-02-24T03:35:54.152Z,4.6
2019-02-24T03:45:53.584Z,6.9
2019-02-24T03:55:53.355Z,6.8
2019-02-24T04:05:53.026Z,6.7
2019-02-24T04:15:52.738Z,5.9
2019-02-24T04:25:52.700Z,5.8
2019-02-24T04:35:55.946Z,5.6
2019-02-24T04:45:55.430Z,5.8
2019-02-24T04:55:55.061Z,6.2
2019-02-24T05:05:52.935Z,11.9
2019-02-24T05:15:52.498Z,7.3
2019-02-24T05:25:51.931Z,6.5
2019-02-24T05:35:51.544Z,6.8
2019-02-24T05:45:51.307Z,6.6
2019-02-24T05:55:50.881Z,6.7
2019-02-24T06:05:50.025Z,12.1
2019-02-24T06:15:49.635Z,4.7
2019-02-24T06:25:49.202Z,5
2019-02-24T06:35:48.953Z,17.7
2019-02-24T06:45:46.859Z,17.2
2019-02-24T06:55:44.715Z,17.1
2019-02-24T07:05:45.212Z,5.4
2019-02-24T07:15:44.839Z,8.6
2019-02-24T07:25:44.743Z,7.3
2019-02-24T07:35:58.312Z,7.6
2019-02-24T07:45:58.576Z,7.1
2019-02-24T07:55:57.977Z,6.4
2019-02-24T08:06:03.271Z,5.7
2019-02-24T08:16:02.652Z,8.9
2019-02-24T08:26:04.164Z,6
2019-02-24T08:36:12.707Z,6.4
2019-02-24T08:46:12.362Z,6.1
2019-02-24T08:56:10.973Z,9.3
2019-02-24T09:06:10.479Z,7.7
2019-02-24T09:16:10.045Z,7.6
2019-02-24T09:26:09.876Z,8.2
2019-02-24T09:36:12.189Z,6.5
2019-02-24T09:46:12.253Z,6.4
2019-02-24T09:56:23.407Z,7.1
2019-02-24T10:06:31.133Z,6.3
2019-02-24T10:16:35.046Z,8.3
2019-02-24T10:26:39.225Z,6.2
2019-02-24T10:36:52.615Z,6.8
2019-02-24T10:47:09.898Z,7
2019-02-24T10:57:13.324Z,6.2
2019-02-24T11:07:30.178Z,6.2
2019-02-24T11:17:35.337Z,5.1
2019-02-24T11:27:35.655Z,5.8
2019-02-24T11:37:35.202Z,6.3
2019-02-24T11:47:37.776Z,5.7
2019-02-24T11:57:38.446Z,5.3
2019-02-24T12:07:39.986Z,4.9
2019-02-24T12:17:39.947Z,6.2
2019-02-24T12:27:41.937Z,6
2019-02-24T12:37:56.998Z,7.9
2019-02-24T12:48:02.095Z,6.9
2019-02-24T12:58:22.665Z,7.2
2019-02-24T13:08:49.541Z,6.5
2019-02-24T13:18:59.065Z,5.7
2019-02-24T13:28:58.806Z,5.9
2019-02-24T13:38:58.594Z,5.9
2019-02-24T13:48:58.134Z,5.7
2019-02-24T13:58:57.674Z,6.3
2019-02-24T14:08:59.694Z,5.1
2019-02-24T14:18:59.618Z,6
2019-02-24T14:29:04.132Z,5.1
2019-02-24T14:39:03.922Z,6.1
2019-02-24T14:49:03.539Z,4.9
2019-02-24T14:59:03.116Z,4.9
2019-02-24T15:09:11.958Z,6.3
2019-02-24T15:19:11.462Z,5.6
2019-02-24T15:29:11.000Z,5.2
2019-02-24T15:39:10.520Z,5.6
2019-02-24T15:49:10.202Z,6.8
2019-02-24T15:59:10.274Z,6.4
2019-02-24T16:09:10.540Z,6.4
2019-02-24T16:19:14.575Z,8.8
2019-02-24T16:29:14.095Z,12.6
2019-02-24T16:39:17.810Z,12
2019-02-24T16:49:20.517Z,8.9
2019-02-24T16:59:24.469Z,10.8
2019-02-24T17:09:34.336Z,13.4
2019-02-24T17:19:38.310Z,10.3
2019-02-24T17:29:38.548Z,14.3
2019-02-24T17:39:38.910Z,18.8
2019-02-24T17:49:43.632Z,20.3
2019-02-24T17:59:51.502Z,32.1
2019-02-24T18:09:59.518Z,17
2019-02-24T18:20:05.180Z,11.3
2019-02-24T18:30:05.056Z,24.8
2019-02-24T18:40:03.198Z,20.6
2019-02-24T18:50:01.151Z,11.5
2019-02-24T19:00:04.757Z,15.7
2019-02-24T19:10:10.285Z,14.1
2019-02-24T19:20:09.883Z,12.7
2019-02-24T19:30:08.330Z,16.4
2019-02-24T19:40:07.932Z,15
2019-02-24T19:50:12.969Z,15.9
2019-02-24T20:00:13.603Z,12.3
2019-02-24T20:10:12.163Z,23.3
2019-02-24T20:20:14.896Z,20.2
2019-02-24T20:30:14.379Z,16.3
2019-02-24T20:40:13.830Z,15.1
2019-02-24T20:50:13.520Z,16.9
2019-02-24T21:00:13.016Z,16.9
2019-02-24T21:10:14.391Z,29.3
2019-02-24T21:20:16.671Z,26.9
2019-02-24T21:30:19.742Z,42.3
2019-02-24T21:40:17.579Z,36.3
2019-02-24T21:50:17.110Z,21.3
2019-02-24T22:00:16.579Z,21.9
2019-02-24T22:10:17.722Z,26.3
2019-02-24T22:20:17.202Z,16
2019-02-24T22:30:15.548Z,21.5
2019-02-24T22:40:17.364Z,8.2
2019-02-24T22:50:24.906Z,7.9
2019-02-24T23:00:24.438Z,7.4
2019-02-24T23:10:23.983Z,8.6
2019-02-24T23:20:23.415Z,10.4
2019-02-24T23:30:22.829Z,10.3
2019-02-24T23:40:22.247Z,9.3
2019-02-24T23:50:21.687Z,9.5
